Cape Romanzof LRRS, AK

12:08 AM AKDT on October 23, 2014 (GMT -0800)
Cape Romanzoff | Change Station
CLOSE
Current Station
Airport
Location: Cape Romanzoff,
Elevation: 479 ft
Nearby Weather Stations

Elev 479 ft 61.78 °N, 166.04 °W | Updated 13 minutes ago

Light Snow Showers
Light Showers Snow
29 °F
Feels Like 25 °F
N
4
Wind Variable Wind from WNW

Today
High -- | Low -- °F
--% Chance of Precip.
Yesterday
High -- | Low -- °F
Precip. -- in
10:10 AM 7:25 PM
Waning Crescent, 0% visible
Pressure 29.94 in
Visibility 8.0 miles
Clouds Overcast 1500 ft
Windchill 25 °F
Dew Point 27 °F
Humidity 92%
Rainfall 0.00 in
Snow Depth Not available.
UV 0 out of 12
Pollen Not available.
Air Quality Not available.
Flu Activity Sporadic
METAR PACZ 230755Z AUTO 29003KT 8SM -SHSN OVC015 M02/M03 A2991 RMK AO2 SNB0704E0729SHSNB0729 SLP136 P0000 T10161028

More Conditions Fewer Conditions

Pressure 29.94 in
Visibility 8.0 miles
Clouds Overcast 1500 ft
Windchill 25 °F
Dew Point 27 °F
Humidity 92%
Rainfall 0.00 in
Snow Depth Not available.
UV 0 out of 12
Pollen Not available.
Air Quality Not available.
Flu Activity Sporadic
METAR PACZ 230755Z AUTO 29003KT 8SM -SHSN OVC015 M02/M03 A2991 RMK AO2 SNB0704E0729SHSNB0729 SLP136 P0000 T10161028

More Conditions Fewer Conditions

10-Day Weather Forecast

Almanac

Astronomy

Oct. 23, 2014 Rise Set
Actual Time 10:10 AM AKDT 7:25 PM AKDT
Civil Twilight 9:24 AM AKDT 8:11 PM AKDT
Nautical Twilight 8:32 AM AKDT 9:02 PM AKDT
Astronomical Twilight 7:41 AM AKDT 9:53 PM AKDT
Moon 10:01 AM AKDT 7:31 PM AKDT
Length of Visible Light 10h 47m
Length of Day
9h 15m
Tomorrow will be 5m 45s shorter.
Waning Crescent, 0% of the Moon is Illuminated
Today
Waning Crescent
Oct 23
New
Oct 30
First Quarter
Nov 6
Full
Nov 14
Last Quarter

Community

WunderPhotos

Upload Photos

1,764,194 photos uploaded!

Nearby

Snow Depth

Station Depth Elevation
Rocky Point 2 in 500 ft
Mcneil Canyon 1 in 1320 ft
Port Graham 0 in 300 ft
Susitna Valley High 0 in 375 ft
Point Mackenzie 1 in 200 ft

Earthquake Activity

City Distance Mag. Time & Date
No recent earthquake activity has been reported nearby.
Minimum magnitude displayed is 2.5.

Coastal Water Temperatures

Place Temperature
No Stations Reporting

Nearby Weather Stations